Online Now
Guests 0
Members   0

24/7 FSX Server
IP: 71.135.74.145
@ PHTO until 8/12/22



Information and tools for flight simulation use only - NOT for real avaition

File Flight Plans Here

PHTO 110812Z AUTO 10008KT 10SM FEW006 BKN023 OVC029 23/22 A3016 RMK AO2 RAE01 P0000 T02330222 TSNO PHTO 110527Z 1106/1206 24005KT P6SM SCT025 BKN035 FM112000 06009KT P6SM SCT025 BKN050
Aviation Digital Data Service (ADDS)



Other FSX servers